sensor_id;sensor_type;location;lat;lon;timestamp;pressure;altitude;pressure_sealevel;temperature;humidity
70921;BME280;58572;48.110;19.838;2024-03-23T00:55:41;97429.16;;;11.14;66.50
70921;BME280;58572;48.110;19.838;2024-03-23T00:58:08;97424.22;;;11.48;62.26
70921;BME280;58572;48.110;19.838;2024-03-23T01:00:35;97434.44;;;11.24;64.71
70921;BME280;58572;48.110;19.838;2024-03-23T01:03:01;97431.50;;;11.20;65.78
70921;BME280;58572;48.110;19.838;2024-03-23T01:05:28;97437.13;;;10.40;70.35
70921;BME280;58572;48.110;19.838;2024-03-23T01:07:54;97430.28;;;10.43;70.78
70921;BME280;58572;48.110;19.838;2024-03-23T01:10:20;97424.50;;;10.26;71.42
70921;BME280;58572;48.110;19.838;2024-03-23T01:12:48;97425.22;;;10.12;71.98
70921;BME280;58572;48.110;19.838;2024-03-23T01:15:15;97419.66;;;10.98;66.37
70921;BME280;58572;48.110;19.838;2024-03-23T01:17:41;97420.81;;;11.57;64.33
70921;BME280;58572;48.110;19.838;2024-03-23T01:20:08;97422.63;;;10.82;66.01
70921;BME280;58572;48.110;19.838;2024-03-23T01:22:34;97412.75;;;11.19;64.24
70921;BME280;58572;48.110;19.838;2024-03-23T01:25:01;97412.88;;;11.28;65.68
70921;BME280;58572;48.110;19.838;2024-03-23T01:27:27;97418.28;;;11.14;64.45
70921;BME280;58572;48.110;19.838;2024-03-23T01:29:55;97409.53;;;11.77;61.55
70921;BME280;58572;48.110;19.838;2024-03-23T01:32:21;97397.25;;;11.93;60.71
70921;BME280;58572;48.110;19.838;2024-03-23T01:34:48;97403.38;;;11.58;61.20
70921;BME280;58572;48.110;19.838;2024-03-23T01:37:14;97402.28;;;11.86;60.66
70921;BME280;58572;48.110;19.838;2024-03-23T01:39:41;97403.09;;;12.00;60.31
70921;BME280;58572;48.110;19.838;2024-03-23T01:42:07;97410.03;;;11.19;62.80
70921;BME280;58572;48.110;19.838;2024-03-23T01:44:34;97405.38;;;11.52;62.65
70921;BME280;58572;48.110;19.838;2024-03-23T01:47:02;97405.38;;;10.54;67.58
70921;BME280;58572;48.110;19.838;2024-03-23T01:49:29;97291.59;;;9.73;67.55
70921;BME280;58572;48.110;19.838;2024-03-23T01:51:55;97400.94;;;10.21;68.35
70921;BME280;58572;48.110;19.838;2024-03-23T01:54:23;97397.53;;;10.53;66.88
70921;BME280;58572;48.110;19.838;2024-03-23T01:56:49;97398.38;;;10.67;67.60
70921;BME280;58572;48.110;19.838;2024-03-23T01:59:16;97277.31;;;9.86;66.74
70921;BME280;58572;48.110;19.838;2024-03-23T02:01:42;97392.69;;;10.07;68.21
70921;BME280;58572;48.110;19.838;2024-03-23T02:04:11;97394.25;;;10.88;63.67
70921;BME280;58572;48.110;19.838;2024-03-23T02:06:36;97379.22;;;11.37;61.55
70921;BME280;58572;48.110;19.838;2024-03-23T02:09:03;97376.19;;;11.25;63.16
70921;BME280;58572;48.110;19.838;2024-03-23T02:11:29;97378.97;;;11.06;62.52
70921;BME280;58572;48.110;19.838;2024-03-23T02:13:56;97377.34;;;10.40;66.75
70921;BME280;58572;48.110;19.838;2024-03-23T02:16:23;97375.72;;;10.91;63.80
70921;BME280;58572;48.110;19.838;2024-03-23T02:18:50;97372.13;;;11.09;63.03
70921;BME280;58572;48.110;19.838;2024-03-23T02:21:17;97381.53;;;10.09;68.42
70921;BME280;58572;48.110;19.838;2024-03-23T02:23:46;97363.66;;;10.97;64.22
70921;BME280;58572;48.110;19.838;2024-03-23T02:26:12;97366.44;;;10.59;65.15
70921;BME280;58572;48.110;19.838;2024-03-23T02:28:39;97363.69;;;11.24;65.13
70921;BME280;58572;48.110;19.838;2024-03-23T02:31:05;97365.56;;;10.64;64.77
70921;BME280;58572;48.110;19.838;2024-03-23T02:33:32;97363.06;;;10.48;67.82
70921;BME280;58572;48.110;19.838;2024-03-23T02:35:59;97362.69;;;10.55;67.31
70921;BME280;58572;48.110;19.838;2024-03-23T02:38:26;97359.53;;;10.67;65.97
70921;BME280;58572;48.110;19.838;2024-03-23T02:40:54;97350.91;;;10.03;69.38
70921;BME280;58572;48.110;19.838;2024-03-23T02:43:21;97354.88;;;9.92;69.82
70921;BME280;58572;48.110;19.838;2024-03-23T02:45:46;97342.22;;;10.25;68.59
70921;BME280;58572;48.110;19.838;2024-03-23T02:48:13;97340.28;;;10.96;63.88
70921;BME280;58572;48.110;19.838;2024-03-23T02:50:39;97336.56;;;10.21;68.62
70921;BME280;58572;48.110;19.838;2024-03-23T02:53:06;97336.97;;;10.66;67.33
70921;BME280;58572;48.110;19.838;2024-03-23T02:55:32;97326.25;;;10.88;64.23
70921;BME280;58572;48.110;19.838;2024-03-23T02:58:00;97327.84;;;10.43;68.33
70921;BME280;58572;48.110;19.838;2024-03-23T03:00:27;97328.72;;;10.71;65.64
70921;BME280;58572;48.110;19.838;2024-03-23T03:02:54;97331.84;;;11.11;63.21
70921;BME280;58572;48.110;19.838;2024-03-23T03:05:21;97327.38;;;11.01;64.70
70921;BME280;58572;48.110;19.838;2024-03-23T03:07:48;97326.63;;;11.28;61.81
70921;BME280;58572;48.110;19.838;2024-03-23T03:10:14;97325.97;;;10.39;68.75
70921;BME280;58572;48.110;19.838;2024-03-23T03:12:41;97324.34;;;10.00;70.23
70921;BME280;58572;48.110;19.838;2024-03-23T03:15:09;97320.97;;;10.08;68.95
70921;BME280;58572;48.110;19.838;2024-03-23T03:17:36;97318.13;;;10.56;66.21
70921;BME280;58572;48.110;19.838;2024-03-23T03:20:02;97318.38;;;10.73;66.79
70921;BME280;58572;48.110;19.838;2024-03-23T03:22:30;97323.84;;;10.17;66.24
70921;BME280;58572;48.110;19.838;2024-03-23T03:24:56;97325.34;;;9.67;69.56
70921;BME280;58572;48.110;19.838;2024-03-23T03:27:23;97311.91;;;9.56;70.53
70921;BME280;58572;48.110;19.838;2024-03-23T03:29:49;97305.63;;;10.17;66.28
70921;BME280;58572;48.110;19.838;2024-03-23T03:32:18;97295.53;;;10.42;65.19
70921;BME280;58572;48.110;19.838;2024-03-23T03:34:44;97299.09;;;10.56;64.66
70921;BME280;58572;48.110;19.838;2024-03-23T03:37:11;97296.75;;;10.31;66.28
70921;BME280;58572;48.110;19.838;2024-03-23T03:39:37;97291.09;;;9.89;68.50
70921;BME280;58572;48.110;19.838;2024-03-23T03:42:04;97292.25;;;10.59;66.53
70921;BME280;58572;48.110;19.838;2024-03-23T03:44:32;97295.50;;;10.74;64.38
70921;BME280;58572;48.110;19.838;2024-03-23T03:46:59;97297.22;;;10.70;64.32
70921;BME280;58572;48.110;19.838;2024-03-23T03:49:26;97295.25;;;10.57;65.23
70921;BME280;58572;48.110;19.838;2024-03-23T03:51:53;97293.31;;;9.87;67.28
70921;BME280;58572;48.110;19.838;2024-03-23T03:54:20;97289.41;;;9.75;69.14
70921;BME280;58572;48.110;19.838;2024-03-23T03:56:47;97289.91;;;10.14;66.11
70921;BME280;58572;48.110;19.838;2024-03-23T03:59:13;97294.13;;;9.45;69.95
70921;BME280;58572;48.110;19.838;2024-03-23T04:01:40;97283.75;;;9.71;69.26
70921;BME280;58572;48.110;19.838;2024-03-23T04:04:06;97286.75;;;9.70;70.08
70921;BME280;58572;48.110;19.838;2024-03-23T04:06:34;97286.22;;;9.49;71.44
70921;BME280;58572;48.110;19.838;2024-03-23T04:09:00;97282.59;;;9.77;68.59
70921;BME280;58572;48.110;19.838;2024-03-23T04:11:27;97283.84;;;9.85;70.17
70921;BME280;58572;48.110;19.838;2024-03-23T04:13:54;97278.25;;;9.57;71.67
70921;BME280;58572;48.110;19.838;2024-03-23T04:16:27;97274.88;;;9.66;70.71
70921;BME280;58572;48.110;19.838;2024-03-23T04:18:54;97282.66;;;9.91;67.01
70921;BME280;58572;48.110;19.838;2024-03-23T04:21:21;97271.81;;;9.91;69.81
70921;BME280;58572;48.110;19.838;2024-03-23T04:23:49;97271.28;;;10.27;67.99
70921;BME280;58572;48.110;19.838;2024-03-23T04:26:16;97268.25;;;10.47;66.89
70921;BME280;58572;48.110;19.838;2024-03-23T04:28:43;97273.84;;;10.69;66.45
70921;BME280;58572;48.110;19.838;2024-03-23T04:31:09;97273.53;;;10.19;65.84
70921;BME280;58572;48.110;19.838;2024-03-23T04:33:36;97274.38;;;9.82;68.96
70921;BME280;58572;48.110;19.838;2024-03-23T04:36:02;97274.28;;;9.69;69.63
70921;BME280;58572;48.110;19.838;2024-03-23T04:38:29;97276.25;;;10.19;68.12
70921;BME280;58572;48.110;19.838;2024-03-23T04:40:58;97260.88;;;9.35;71.30
70921;BME280;58572;48.110;19.838;2024-03-23T04:43:26;97275.41;;;9.68;70.24
70921;BME280;58572;48.110;19.838;2024-03-23T04:45:53;97276.47;;;9.48;70.45
70921;BME280;58572;48.110;19.838;2024-03-23T04:48:20;97272.25;;;9.79;67.06
70921;BME280;58572;48.110;19.838;2024-03-23T04:50:48;97262.41;;;10.21;67.34
70921;BME280;58572;48.110;19.838;2024-03-23T04:53:15;97254.44;;;10.90;63.63
70921;BME280;58572;48.110;19.838;2024-03-23T04:55:43;97270.09;;;10.14;68.65
70921;BME280;58572;48.110;19.838;2024-03-23T04:58:11;97260.53;;;10.35;65.66
70921;BME280;58572;48.110;19.838;2024-03-23T05:00:37;97260.94;;;10.29;66.87
70921;BME280;58572;48.110;19.838;2024-03-23T05:03:04;97259.09;;;11.03;63.03
70921;BME280;58572;48.110;19.838;2024-03-23T05:05:30;97260.38;;;10.92;67.40
70921;BME280;58572;48.110;19.838;2024-03-23T05:07:57;97265.94;;;11.00;65.79
70921;BME280;58572;48.110;19.838;2024-03-23T05:10:23;97256.66;;;11.01;63.96
70921;BME280;58572;48.110;19.838;2024-03-23T05:12:50;97255.66;;;11.11;63.95
70921;BME280;58572;48.110;19.838;2024-03-23T05:15:18;97247.47;;;11.66;63.40
70921;BME280;58572;48.110;19.838;2024-03-23T05:17:45;97257.88;;;11.36;65.17
70921;BME280;58572;48.110;19.838;2024-03-23T05:20:11;97247.59;;;11.61;61.14
70921;BME280;58572;48.110;19.838;2024-03-23T05:22:39;97249.31;;;11.29;63.55
70921;BME280;58572;48.110;19.838;2024-03-23T05:25:06;97240.22;;;11.61;64.25
70921;BME280;58572;48.110;19.838;2024-03-23T05:27:33;97241.38;;;11.96;64.64
70921;BME280;58572;48.110;19.838;2024-03-23T05:29:59;97237.09;;;11.81;60.62
70921;BME280;58572;48.110;19.838;2024-03-23T05:32:27;97239.69;;;11.73;61.54
70921;BME280;58572;48.110;19.838;2024-03-23T05:34:54;97234.56;;;12.07;60.91
70921;BME280;58572;48.110;19.838;2024-03-23T05:37:22;97235.50;;;11.39;63.91
70921;BME280;58572;48.110;19.838;2024-03-23T05:39:48;97235.13;;;11.18;64.12
70921;BME280;58572;48.110;19.838;2024-03-23T05:42:16;97242.25;;;10.87;69.67
70921;BME280;58572;48.110;19.838;2024-03-23T05:44:42;97241.56;;;11.23;66.78
70921;BME280;58572;48.110;19.838;2024-03-23T05:47:09;97233.59;;;10.99;69.75
70921;BME280;58572;48.110;19.838;2024-03-23T05:49:37;97237.88;;;11.82;65.74
70921;BME280;58572;48.110;19.838;2024-03-23T05:52:04;97232.09;;;11.47;68.47
70921;BME280;58572;48.110;19.838;2024-03-23T05:54:30;97225.00;;;11.60;67.08
70921;BME280;58572;48.110;19.838;2024-03-23T05:56:57;97241.16;;;11.29;69.83
70921;BME280;58572;48.110;19.838;2024-03-23T05:59:23;97235.81;;;12.01;66.07
70921;BME280;58572;48.110;19.838;2024-03-23T06:01:50;97223.03;;;12.33;63.98
70921;BME280;58572;48.110;19.838;2024-03-23T06:04:16;97228.63;;;12.28;62.59
70921;BME280;58572;48.110;19.838;2024-03-23T06:06:45;97230.78;;;11.95;67.33
70921;BME280;58572;48.110;19.838;2024-03-23T06:09:10;97223.38;;;12.85;61.84
70921;BME280;58572;48.110;19.838;2024-03-23T06:11:37;97218.41;;;12.87;62.46
70921;BME280;58572;48.110;19.838;2024-03-23T06:14:03;97107.22;;;11.32;65.06
70921;BME280;58572;48.110;19.838;2024-03-23T06:16:31;97212.69;;;12.66;62.10
70921;BME280;58572;48.110;19.838;2024-03-23T06:18:57;97205.66;;;13.13;61.11
70921;BME280;58572;48.110;19.838;2024-03-23T06:21:24;97206.50;;;12.83;63.13
70921;BME280;58572;48.110;19.838;2024-03-23T06:23:53;97201.50;;;13.72;61.16
70921;BME280;58572;48.110;19.838;2024-03-23T06:26:20;97200.69;;;13.72;57.94
70921;BME280;58572;48.110;19.838;2024-03-23T06:28:47;97205.28;;;13.46;63.37
70921;BME280;58572;48.110;19.838;2024-03-23T06:31:14;97194.09;;;13.73;59.14
70921;BME280;58572;48.110;19.838;2024-03-23T06:33:40;97193.28;;;13.98;59.18
70921;BME280;58572;48.110;19.838;2024-03-23T06:36:09;97194.91;;;13.99;57.48
70921;BME280;58572;48.110;19.838;2024-03-23T06:38:35;97193.59;;;13.62;61.23
70921;BME280;58572;48.110;19.838;2024-03-23T06:41:04;97189.91;;;14.19;59.58
70921;BME280;58572;48.110;19.838;2024-03-23T06:43:30;97166.31;;;13.71;58.97
70921;BME280;58572;48.110;19.838;2024-03-23T06:45:57;97195.03;;;14.29;58.13
70921;BME280;58572;48.110;19.838;2024-03-23T06:48:23;97194.59;;;13.75;58.32
70921;BME280;58572;48.110;19.838;2024-03-23T06:50:55;97156.66;;;13.65;59.60
70921;BME280;58572;48.110;19.838;2024-03-23T06:53:21;97178.50;;;13.65;60.06
70921;BME280;58572;48.110;19.838;2024-03-23T06:55:51;97180.41;;;14.25;57.56
70921;BME280;58572;48.110;19.838;2024-03-23T06:58:19;97182.34;;;14.16;59.77
70921;BME280;58572;48.110;19.838;2024-03-23T07:00:46;97182.84;;;13.92;59.74
70921;BME280;58572;48.110;19.838;2024-03-23T07:03:12;97183.34;;;13.85;60.70
70921;BME280;58572;48.110;19.838;2024-03-23T07:05:39;97184.56;;;14.31;59.28
70921;BME280;58572;48.110;19.838;2024-03-23T07:08:05;97182.47;;;14.54;58.81
70921;BME280;58572;48.110;19.838;2024-03-23T07:10:33;97186.19;;;14.23;61.53
70921;BME280;58572;48.110;19.838;2024-03-23T07:12:59;97190.56;;;14.07;57.11
70921;BME280;58572;48.110;19.838;2024-03-23T07:15:28;97175.91;;;14.12;56.38
70921;BME280;58572;48.110;19.838;2024-03-23T07:17:54;97174.31;;;15.21;56.65
70921;BME280;58572;48.110;19.838;2024-03-23T07:20:20;97183.28;;;14.46;54.50
70921;BME280;58572;48.110;19.838;2024-03-23T07:22:46;97183.25;;;14.72;56.85
70921;BME280;58572;48.110;19.838;2024-03-23T07:25:14;97179.97;;;14.87;56.09
70921;BME280;58572;48.110;19.838;2024-03-23T07:27:40;97188.75;;;14.37;55.40
70921;BME280;58572;48.110;19.838;2024-03-23T07:30:08;97181.03;;;14.39;56.12
70921;BME280;58572;48.110;19.838;2024-03-23T07:32:36;97181.66;;;14.53;54.25
70921;BME280;58572;48.110;19.838;2024-03-23T07:35:03;97181.56;;;15.47;53.95
70921;BME280;58572;48.110;19.838;2024-03-23T07:37:31;97164.78;;;15.99;53.60
70921;BME280;58572;48.110;19.838;2024-03-23T07:39:57;97163.41;;;15.72;52.84
70921;BME280;58572;48.110;19.838;2024-03-23T07:42:25;97154.81;;;16.15;52.43
70921;BME280;58572;48.110;19.838;2024-03-23T07:44:52;97155.25;;;15.84;53.59
70921;BME280;58572;48.110;19.838;2024-03-23T07:47:20;97157.03;;;15.59;53.71
70921;BME280;58572;48.110;19.838;2024-03-23T07:49:48;97141.91;;;16.15;51.56
70921;BME280;58572;48.110;19.838;2024-03-23T07:52:15;97134.41;;;16.70;51.51
70921;BME280;58572;48.110;19.838;2024-03-23T07:54:41;97131.69;;;17.18;49.88
70921;BME280;58572;48.110;19.838;2024-03-23T07:57:07;97131.94;;;15.48;51.18
70921;BME280;58572;48.110;19.838;2024-03-23T07:59:33;97128.66;;;15.55;52.20
70921;BME280;58572;48.110;19.838;2024-03-23T08:02:00;97115.41;;;15.86;52.98
70921;BME280;58572;48.110;19.838;2024-03-23T08:04:27;97109.72;;;16.94;50.05
70921;BME280;58572;48.110;19.838;2024-03-23T08:06:55;97122.19;;;16.34;50.84
70921;BME280;58572;48.110;19.838;2024-03-23T08:09:22;97118.53;;;17.12;49.49
70921;BME280;58572;48.110;19.838;2024-03-23T08:11:49;97127.47;;;16.51;51.75
70921;BME280;58572;48.110;19.838;2024-03-23T08:14:14;97132.94;;;16.06;50.08
70921;BME280;58572;48.110;19.838;2024-03-23T08:16:41;97105.31;;;16.56;50.80
70921;BME280;58572;48.110;19.838;2024-03-23T08:19:13;97121.84;;;16.03;51.05
70921;BME280;58572;48.110;19.838;2024-03-23T08:21:40;97123.81;;;15.81;51.62
70921;BME280;58572;48.110;19.838;2024-03-23T08:24:08;97118.81;;;15.62;52.09
70921;BME280;58572;48.110;19.838;2024-03-23T08:26:35;97112.19;;;16.17;50.99
70921;BME280;58572;48.110;19.838;2024-03-23T08:29:03;97105.97;;;16.53;51.13
70921;BME280;58572;48.110;19.838;2024-03-23T08:31:30;97104.69;;;16.96;50.72
70921;BME280;58572;48.110;19.838;2024-03-23T08:33:56;97104.88;;;17.40;50.28
70921;BME280;58572;48.110;19.838;2024-03-23T08:36:23;97112.78;;;16.23;51.00
70921;BME280;58572;48.110;19.838;2024-03-23T08:38:49;97100.78;;;17.09;51.28
70921;BME280;58572;48.110;19.838;2024-03-23T08:41:20;97090.69;;;17.66;50.05
70921;BME280;58572;48.110;19.838;2024-03-23T08:43:46;97110.63;;;16.74;51.56
70921;BME280;58572;48.110;19.838;2024-03-23T08:46:15;97107.69;;;16.58;49.84
70921;BME280;58572;48.110;19.838;2024-03-23T08:48:42;97108.09;;;15.90;51.52
70921;BME280;58572;48.110;19.838;2024-03-23T08:51:12;97099.66;;;16.86;50.97
70921;BME280;58572;48.110;19.838;2024-03-23T08:53:38;97118.88;;;15.95;50.54
70921;BME280;58572;48.110;19.838;2024-03-23T08:56:06;97108.22;;;16.27;50.63
70921;BME280;58572;48.110;19.838;2024-03-23T08:58:34;97102.75;;;16.39;50.47
70921;BME280;58572;48.110;19.838;2024-03-23T09:01:06;97097.94;;;17.58;49.29
70921;BME280;58572;48.110;19.838;2024-03-23T09:03:33;97084.88;;;17.67;50.08
70921;BME280;58572;48.110;19.838;2024-03-23T09:06:01;97079.38;;;17.67;48.62
70921;BME280;58572;48.110;19.838;2024-03-23T09:08:27;97076.19;;;18.21;48.36
70921;BME280;58572;48.110;19.838;2024-03-23T09:10:54;97058.38;;;19.09;47.77
70921;BME280;58572;48.110;19.838;2024-03-23T09:13:20;97076.22;;;18.52;46.04
70921;BME280;58572;48.110;19.838;2024-03-23T09:15:49;97069.81;;;20.66;45.52
70921;BME280;58572;48.110;19.838;2024-03-23T09:18:16;97059.13;;;20.87;45.27
70921;BME280;58572;48.110;19.838;2024-03-23T09:20:43;97023.22;;;20.19;44.98
70921;BME280;58572;48.110;19.838;2024-03-23T09:23:09;97052.22;;;20.09;43.58
70921;BME280;58572;48.110;19.838;2024-03-23T09:25:36;97022.13;;;20.46;42.60
70921;BME280;58572;48.110;19.838;2024-03-23T09:28:03;97037.47;;;22.46;41.08
70921;BME280;58572;48.110;19.838;2024-03-23T09:30:31;97041.34;;;21.11;42.41
70921;BME280;58572;48.110;19.838;2024-03-23T09:32:59;97036.72;;;22.49;41.61
70921;BME280;58572;48.110;19.838;2024-03-23T09:35:26;97042.66;;;20.94;41.63
70921;BME280;58572;48.110;19.838;2024-03-23T09:37:52;97034.94;;;22.71;40.28
70921;BME280;58572;48.110;19.838;2024-03-23T09:40:20;97031.34;;;23.91;38.62
70921;BME280;58572;48.110;19.838;2024-03-23T09:42:50;97023.25;;;22.92;39.09
70921;BME280;58572;48.110;19.838;2024-03-23T09:45:19;97029.03;;;22.76;40.72
70921;BME280;58572;48.110;19.838;2024-03-23T09:47:47;97023.44;;;22.69;40.87
70921;BME280;58572;48.110;19.838;2024-03-23T09:50:15;97021.03;;;21.00;41.32
70921;BME280;58572;48.110;19.838;2024-03-23T09:52:41;97012.00;;;21.93;40.54
70921;BME280;58572;48.110;19.838;2024-03-23T09:55:08;96996.81;;;23.85;37.59
70921;BME280;58572;48.110;19.838;2024-03-23T09:57:35;96993.34;;;22.68;40.57
70921;BME280;58572;48.110;19.838;2024-03-23T10:00:02;96998.06;;;23.98;37.36
70921;BME280;58572;48.110;19.838;2024-03-23T10:02:28;96990.00;;;23.68;38.22
70921;BME280;58572;48.110;19.838;2024-03-23T10:04:55;96989.34;;;23.96;36.73
70921;BME280;58572;48.110;19.838;2024-03-23T10:07:25;96991.34;;;23.16;38.09
70921;BME280;58572;48.110;19.838;2024-03-23T10:09:53;97006.84;;;20.29;41.90
70921;BME280;58572;48.110;19.838;2024-03-23T10:12:20;96991.75;;;21.85;40.04
70921;BME280;58572;48.110;19.838;2024-03-23T10:14:46;96977.19;;;23.42;37.33
70921;BME280;58572;48.110;19.838;2024-03-23T10:17:14;96968.78;;;24.61;36.51
70921;BME280;58572;48.110;19.838;2024-03-23T10:19:43;96971.81;;;22.47;37.56
70921;BME280;58572;48.110;19.838;2024-03-23T10:22:10;96966.00;;;23.21;38.00
70921;BME280;58572;48.110;19.838;2024-03-23T10:24:38;96967.06;;;23.89;36.86
70921;BME280;58572;48.110;19.838;2024-03-23T10:27:04;96967.41;;;23.70;37.46
70921;BME280;58572;48.110;19.838;2024-03-23T10:29:31;96970.97;;;23.60;37.48
70921;BME280;58572;48.110;19.838;2024-03-23T10:32:07;96928.56;;;21.91;37.94
70921;BME280;58572;48.110;19.838;2024-03-23T10:34:35;96972.81;;;21.24;40.55
70921;BME280;58572;48.110;19.838;2024-03-23T10:37:02;96974.94;;;21.08;39.28
70921;BME280;58572;48.110;19.838;2024-03-23T10:39:32;96957.53;;;22.45;37.34
70921;BME280;58572;48.110;19.838;2024-03-23T10:42:02;96956.38;;;21.68;38.67
70921;BME280;58572;48.110;19.838;2024-03-23T10:44:29;96954.50;;;22.64;37.65
70921;BME280;58572;48.110;19.838;2024-03-23T10:46:56;96942.47;;;23.87;36.45
70921;BME280;58572;48.110;19.838;2024-03-23T10:49:26;96953.06;;;22.81;37.34
70921;BME280;58572;48.110;19.838;2024-03-23T10:51:53;96949.69;;;24.06;35.99
70921;BME280;58572;48.110;19.838;2024-03-23T10:54:21;96943.88;;;23.35;36.16
70921;BME280;58572;48.110;19.838;2024-03-23T10:56:49;96948.81;;;23.77;36.81
70921;BME280;58572;48.110;19.838;2024-03-23T10:59:20;96947.69;;;22.03;38.02
70921;BME280;58572;48.110;19.838;2024-03-23T11:02:00;96930.38;;;23.27;36.75
70921;BME280;58572;48.110;19.838;2024-03-23T11:04:32;96915.09;;;23.72;36.25
70921;BME280;58572;48.110;19.838;2024-03-23T11:06:59;96921.91;;;22.95;37.36
70921;BME280;58572;48.110;19.838;2024-03-23T11:09:42;96911.53;;;22.88;37.49
70921;BME280;58572;48.110;19.838;2024-03-23T11:12:29;96907.81;;;21.74;40.69
70921;BME280;58572;48.110;19.838;2024-03-23T11:15:02;96887.50;;;20.66;39.99
70921;BME280;58572;48.110;19.838;2024-03-23T11:17:29;96894.94;;;21.89;39.63
70921;BME280;58572;48.110;19.838;2024-03-23T11:19:56;96896.50;;;21.49;39.78
70921;BME280;58572;48.110;19.838;2024-03-23T11:22:41;96890.47;;;21.81;40.73
70921;BME280;58572;48.110;19.838;2024-03-23T11:25:16;96889.38;;;21.48;40.22
70921;BME280;58572;48.110;19.838;2024-03-23T11:27:43;96845.25;;;21.62;39.73
70921;BME280;58572;48.110;19.838;2024-03-23T11:30:14;96881.00;;;20.51;41.81
70921;BME280;58572;48.110;19.838;2024-03-23T11:32:41;96865.66;;;21.14;42.40
70921;BME280;58572;48.110;19.838;2024-03-23T11:35:09;96859.06;;;20.62;41.96
70921;BME280;58572;48.110;19.838;2024-03-23T11:37:38;96872.44;;;20.60;43.25
70921;BME280;58572;48.110;19.838;2024-03-23T11:40:24;96862.16;;;21.54;41.59
70921;BME280;58572;48.110;19.838;2024-03-23T11:42:55;96843.47;;;21.40;41.75
70921;BME280;58572;48.110;19.838;2024-03-23T11:45:24;96855.28;;;21.37;41.55
70921;BME280;58572;48.110;19.838;2024-03-23T11:48:01;96848.56;;;21.79;42.30
70921;BME280;58572;48.110;19.838;2024-03-23T11:50:28;96851.31;;;22.19;40.90
70921;BME280;58572;48.110;19.838;2024-03-23T11:53:06;96835.63;;;21.46;42.30
70921;BME280;58572;48.110;19.838;2024-03-23T11:55:39;96832.75;;;21.01;41.62
70921;BME280;58572;48.110;19.838;2024-03-23T11:58:06;96826.72;;;22.07;40.93
70921;BME280;58572;48.110;19.838;2024-03-23T12:00:34;96822.97;;;21.45;40.68
70921;BME280;58572;48.110;19.838;2024-03-23T12:03:01;96843.66;;;19.62;41.91
70921;BME280;58572;48.110;19.838;2024-03-23T12:05:28;96825.38;;;21.13;40.80
70921;BME280;58572;48.110;19.838;2024-03-23T12:07:55;96818.69;;;21.51;41.21
70921;BME280;58572;48.110;19.838;2024-03-23T12:10:22;96814.88;;;20.92;41.36
70921;BME280;58572;48.110;19.838;2024-03-23T12:12:59;96825.69;;;20.44;40.29
70921;BME280;58572;48.110;19.838;2024-03-23T12:15:27;96811.84;;;21.38;40.60
70921;BME280;58572;48.110;19.838;2024-03-23T12:18:07;96807.66;;;21.54;39.83
70921;BME280;58572;48.110;19.838;2024-03-23T12:20:34;96802.44;;;20.79;41.27
70921;BME280;58572;48.110;19.838;2024-03-23T12:23:12;96795.94;;;20.64;41.28
70921;BME280;58572;48.110;19.838;2024-03-23T12:25:39;96785.44;;;21.07;40.15
70921;BME280;58572;48.110;19.838;2024-03-23T12:28:06;96747.50;;;21.03;39.95
70921;BME280;58572;48.110;19.838;2024-03-23T12:30:35;96773.19;;;20.74;42.16
70921;BME280;58572;48.110;19.838;2024-03-23T12:33:01;96783.59;;;20.84;41.18
70921;BME280;58572;48.110;19.838;2024-03-23T12:35:30;96774.66;;;20.34;41.87
70921;BME280;58572;48.110;19.838;2024-03-23T12:37:55;96761.00;;;20.79;42.05
70921;BME280;58572;48.110;19.838;2024-03-23T12:40:22;96757.59;;;20.89;40.96
70921;BME280;58572;48.110;19.838;2024-03-23T12:42:48;96750.22;;;21.37;40.95
70921;BME280;58572;48.110;19.838;2024-03-23T12:45:15;96752.81;;;21.63;40.96
70921;BME280;58572;48.110;19.838;2024-03-23T12:47:42;96742.66;;;21.82;41.48
70921;BME280;58572;48.110;19.838;2024-03-23T12:50:09;96738.28;;;22.36;40.82
70921;BME280;58572;48.110;19.838;2024-03-23T12:52:37;96732.72;;;22.32;41.06
70921;BME280;58572;48.110;19.838;2024-03-23T12:55:04;96733.78;;;22.06;40.15
70921;BME280;58572;48.110;19.838;2024-03-23T12:57:31;96732.81;;;22.50;40.32
70921;BME280;58572;48.110;19.838;2024-03-23T12:59:58;96719.66;;;21.71;40.56
70921;BME280;58572;48.110;19.838;2024-03-23T13:02:24;96730.38;;;20.57;43.45
70921;BME280;58572;48.110;19.838;2024-03-23T13:04:52;96712.44;;;21.55;42.48
70921;BME280;58572;48.110;19.838;2024-03-23T13:07:19;96717.84;;;21.41;41.09
70921;BME280;58572;48.110;19.838;2024-03-23T13:09:50;96694.34;;;20.80;42.47
70921;BME280;58572;48.110;19.838;2024-03-23T13:12:16;96707.16;;;20.95;41.56
70921;BME280;58572;48.110;19.838;2024-03-23T13:14:44;96704.09;;;21.08;41.68
70921;BME280;58572;48.110;19.838;2024-03-23T13:17:10;96703.44;;;21.21;42.61
70921;BME280;58572;48.110;19.838;2024-03-23T13:19:37;96703.59;;;21.35;42.16
70921;BME280;58572;48.110;19.838;2024-03-23T13:22:03;96705.50;;;21.28;42.51
70921;BME280;58572;48.110;19.838;2024-03-23T13:24:31;96705.75;;;20.42;43.61
70921;BME280;58572;48.110;19.838;2024-03-23T13:26:58;96697.44;;;20.75;42.38
70921;BME280;58572;48.110;19.838;2024-03-23T13:29:25;96690.25;;;21.04;41.96
70921;BME280;58572;48.110;19.838;2024-03-23T13:31:52;96683.34;;;21.76;41.42
70921;BME280;58572;48.110;19.838;2024-03-23T13:34:19;96684.91;;;21.77;41.81
70921;BME280;58572;48.110;19.838;2024-03-23T13:36:46;96684.06;;;21.65;42.24
70921;BME280;58572;48.110;19.838;2024-03-23T13:39:14;96685.09;;;21.02;43.72
70921;BME280;58572;48.110;19.838;2024-03-23T13:41:42;96686.22;;;20.94;42.83
70921;BME280;58572;48.110;19.838;2024-03-23T13:44:11;96679.16;;;21.41;43.08
70921;BME280;58572;48.110;19.838;2024-03-23T13:46:37;96642.03;;;21.46;42.14